createdAt,value
2017-10-31T00:01:24.886Z,63.00
2017-10-31T00:03:52.354Z,63.10
2017-10-31T00:06:20.572Z,63.20
2017-10-31T00:08:48.078Z,63.10
2017-10-31T00:11:15.554Z,63.10
2017-10-31T00:13:43.779Z,63.20
2017-10-31T00:16:11.990Z,63.20
2017-10-31T00:18:39.469Z,63.10
2017-10-31T00:21:06.926Z,63.20
2017-10-31T00:23:34.381Z,63.20
2017-10-31T00:26:01.860Z,63.20
2017-10-31T00:28:29.333Z,63.20
2017-10-31T00:30:56.784Z,63.20
2017-10-31T00:33:24.236Z,63.20
2017-10-31T00:35:51.897Z,63.30
2017-10-31T00:38:19.354Z,63.30
2017-10-31T00:40:46.807Z,63.40
2017-10-31T00:43:14.274Z,63.40
2017-10-31T00:45:41.727Z,63.30
2017-10-31T00:48:09.168Z,63.40
2017-10-31T00:50:36.632Z,63.40
2017-10-31T00:53:04.094Z,63.50
2017-10-31T00:55:31.563Z,63.60
2017-10-31T00:57:59.049Z,63.60
2017-10-31T01:00:27.344Z,63.70
2017-10-31T01:02:54.818Z,63.70
2017-10-31T01:05:23.039Z,63.80
2017-10-31T01:07:50.509Z,63.80
2017-10-31T01:10:17.953Z,63.80
2017-10-31T01:12:45.408Z,63.90
2017-10-31T01:15:12.890Z,63.80
2017-10-31T01:17:40.337Z,63.80
2017-10-31T01:20:07.813Z,63.80
2017-10-31T01:22:35.262Z,63.80
2017-10-31T01:25:02.712Z,63.90
2017-10-31T01:27:30.179Z,63.90
2017-10-31T01:29:58.698Z,64.10
2017-10-31T01:32:26.948Z,64.00
2017-10-31T01:34:54.394Z,64.00
2017-10-31T01:37:22.618Z,64.00
2017-10-31T01:39:50.094Z,64.00
2017-10-31T01:42:17.544Z,64.10
2017-10-31T01:44:45.010Z,64.00
2017-10-31T01:47:12.472Z,64.20
2017-10-31T01:49:39.966Z,64.20
2017-10-31T01:52:07.554Z,64.10
2017-10-31T01:54:35.035Z,64.20
2017-10-31T01:57:03.270Z,64.40
2017-10-31T02:02:21.265Z,64.40
2017-10-31T02:04:48.758Z,64.30
2017-10-31T02:07:16.221Z,64.40
2017-10-31T02:09:43.681Z,64.60
2017-10-31T02:12:11.146Z,64.70
2017-10-31T02:14:38.627Z,64.60
2017-10-31T02:17:06.094Z,64.70
2017-10-31T02:19:33.567Z,64.80
2017-10-31T02:22:01.009Z,64.80
2017-10-31T02:24:28.481Z,64.80
2017-10-31T02:26:55.937Z,64.90
2017-10-31T02:29:23.401Z,65.10
2017-10-31T02:31:50.844Z,65.10
2017-10-31T02:34:18.365Z,65.00
2017-10-31T02:36:45.850Z,65.00
2017-10-31T02:39:16.847Z,64.90
2017-10-31T02:41:44.329Z,64.90
2017-10-31T02:44:11.785Z,64.80
2017-10-31T02:46:39.242Z,64.80
2017-10-31T02:49:06.721Z,64.80
2017-10-31T02:51:34.166Z,64.80
2017-10-31T02:54:01.647Z,65.00
2017-10-31T02:56:29.117Z,64.90
2017-10-31T02:58:56.610Z,64.90
2017-10-31T03:01:24.101Z,64.90
2017-10-31T03:03:51.563Z,64.90
2017-10-31T03:06:19.026Z,64.90
2017-10-31T03:08:46.473Z,65.60
2017-10-31T03:11:14.042Z,64.90
2017-10-31T03:13:41.506Z,64.90
2017-10-31T03:16:08.992Z,64.90
2017-10-31T03:18:36.452Z,65.00
2017-10-31T03:21:03.916Z,65.20
2017-10-31T03:23:31.368Z,65.10
2017-10-31T03:25:58.812Z,65.20
2017-10-31T03:28:26.297Z,65.00
2017-10-31T03:30:53.759Z,64.90
2017-10-31T03:33:21.198Z,64.90
2017-10-31T03:35:48.678Z,64.90
2017-10-31T03:38:16.154Z,64.80
2017-10-31T03:40:43.630Z,65.60
2017-10-31T03:43:11.079Z,64.70
2017-10-31T03:45:39.329Z,65.20
2017-10-31T03:48:06.821Z,64.70
2017-10-31T03:50:34.273Z,64.70
2017-10-31T03:53:01.744Z,65.30
2017-10-31T03:55:29.191Z,64.70
2017-10-31T03:57:56.672Z,64.90
2017-10-31T04:00:24.158Z,64.90
2017-10-31T04:02:52.374Z,64.90
2017-10-31T04:05:19.834Z,64.90
2017-10-31T04:07:47.305Z,64.80
2017-10-31T04:10:14.762Z,64.90
2017-10-31T04:12:42.336Z,64.90
2017-10-31T04:15:09.818Z,65.60
2017-10-31T04:17:37.274Z,64.80
2017-10-31T04:20:04.733Z,64.90
2017-10-31T04:22:32.212Z,64.90
2017-10-31T04:24:59.716Z,64.90
2017-10-31T04:27:27.182Z,64.90
2017-10-31T04:29:54.630Z,64.90
2017-10-31T04:32:22.103Z,64.90
2017-10-31T04:34:49.581Z,65.00
2017-10-31T04:37:17.140Z,65.00
2017-10-31T04:39:45.398Z,65.30
2017-10-31T04:42:13.105Z,65.20
2017-10-31T04:44:40.586Z,65.30
2017-10-31T04:47:08.058Z,65.30
2017-10-31T04:49:35.554Z,65.30
2017-10-31T04:52:03.020Z,65.20
2017-10-31T04:54:30.477Z,65.30
2017-10-31T04:56:57.959Z,65.40
2017-10-31T04:59:25.411Z,65.50
2017-10-31T05:01:53.200Z,65.50
2017-10-31T05:04:20.867Z,65.50
2017-10-31T05:06:48.316Z,65.60
2017-10-31T05:09:15.821Z,65.60
2017-10-31T05:11:43.338Z,65.60
2017-10-31T05:14:10.797Z,65.60
2017-10-31T05:16:38.358Z,65.60
2017-10-31T05:19:05.851Z,65.70
2017-10-31T05:21:33.322Z,65.70
2017-10-31T05:24:00.810Z,65.70
2017-10-31T05:26:28.257Z,65.70
2017-10-31T05:28:56.473Z,65.70
2017-10-31T05:31:23.955Z,65.70
2017-10-31T05:33:51.428Z,65.70
2017-10-31T05:36:19.686Z,65.90
2017-10-31T05:38:47.146Z,65.70
2017-10-31T05:41:14.621Z,65.70
2017-10-31T05:43:42.076Z,65.60
2017-10-31T05:46:09.561Z,65.50
2017-10-31T05:48:37.050Z,65.50
2017-10-31T05:51:04.508Z,65.50
2017-10-31T05:53:32.029Z,65.40
2017-10-31T05:56:00.288Z,65.50
2017-10-31T05:58:27.747Z,65.50
2017-10-31T06:00:55.223Z,65.50
2017-10-31T06:03:23.486Z,65.60
2017-10-31T06:05:51.762Z,66.20
2017-10-31T06:08:19.424Z,65.60
2017-10-31T06:10:46.902Z,65.80
2017-10-31T06:13:15.190Z,65.80
2017-10-31T06:15:42.642Z,65.80
2017-10-31T06:18:10.155Z,65.70
2017-10-31T06:20:37.639Z,65.70
2017-10-31T06:23:11.579Z,65.80
2017-10-31T06:25:44.774Z,65.70
2017-10-31T06:28:17.919Z,65.80
2017-10-31T06:30:50.969Z,65.70
2017-10-31T06:33:18.422Z,65.70
2017-10-31T06:35:45.907Z,65.80
2017-10-31T06:38:13.390Z,65.90
2017-10-31T06:40:40.849Z,65.80
2017-10-31T06:43:08.330Z,65.80
2017-10-31T06:45:35.826Z,65.70
2017-10-31T06:48:04.053Z,66.40
2017-10-31T06:50:31.489Z,65.60
2017-10-31T06:52:59.022Z,65.50
2017-10-31T06:55:26.505Z,65.50
2017-10-31T06:57:54.016Z,65.40
2017-10-31T07:00:21.643Z,64.40
2017-10-31T07:02:50.011Z,64.40
2017-10-31T07:07:51.465Z,64.30
2017-10-31T07:10:19.114Z,64.30
2017-10-31T07:12:46.743Z,64.40
2017-10-31T07:15:14.344Z,64.40
2017-10-31T07:17:42.595Z,64.40
2017-10-31T07:20:10.151Z,64.40
2017-10-31T07:22:37.818Z,64.40
2017-10-31T07:25:05.391Z,64.30
2017-10-31T07:27:33.056Z,64.20
2017-10-31T07:30:00.670Z,64.00
2017-10-31T07:32:29.000Z,64.10
2017-10-31T07:34:56.604Z,64.10
2017-10-31T07:37:24.960Z,64.30
2017-10-31T07:39:52.479Z,64.20
2017-10-31T07:42:20.001Z,64.10
2017-10-31T07:44:48.260Z,64.40
2017-10-31T07:47:16.148Z,64.30
2017-10-31T07:49:43.713Z,64.40
2017-10-31T07:52:14.202Z,64.20
2017-10-31T07:54:41.678Z,64.10
2017-10-31T07:57:09.321Z,64.00
2017-10-31T07:59:36.797Z,64.00
2017-10-31T08:02:04.446Z,63.90
2017-10-31T08:04:31.993Z,63.90
2017-10-31T08:06:59.549Z,63.90
2017-10-31T08:09:27.145Z,63.90
2017-10-31T08:11:54.853Z,63.90
2017-10-31T08:14:23.027Z,63.90
2017-10-31T08:16:50.723Z,63.90
2017-10-31T08:19:18.243Z,63.80
2017-10-31T08:21:45.858Z,63.70
2017-10-31T08:24:13.762Z,63.60
2017-10-31T08:26:41.496Z,63.60
2017-10-31T08:29:09.173Z,63.70
2017-10-31T08:31:37.485Z,63.40
2017-10-31T08:34:05.098Z,63.40
2017-10-31T08:36:33.014Z,63.30
2017-10-31T08:39:00.513Z,63.30
2017-10-31T08:41:27.992Z,63.20
2017-10-31T08:43:55.828Z,63.20
2017-10-31T08:46:23.602Z,63.30
2017-10-31T08:48:51.353Z,63.20
2017-10-31T08:51:19.119Z,63.10
2017-10-31T08:53:46.917Z,63.00
2017-10-31T08:56:14.501Z,62.90
2017-10-31T08:58:43.068Z,62.80
2017-10-31T09:01:10.596Z,62.70
2017-10-31T09:03:38.873Z,63.40
2017-10-31T09:06:07.132Z,62.40
2017-10-31T09:08:34.635Z,62.40
2017-10-31T09:11:02.555Z,62.50
2017-10-31T09:13:30.245Z,62.20
2017-10-31T09:15:57.928Z,62.10
2017-10-31T09:18:25.509Z,62.10
2017-10-31T09:20:54.020Z,62.00
2017-10-31T09:23:21.553Z,62.00
2017-10-31T09:25:49.112Z,61.90
2017-10-31T09:28:17.358Z,61.90
2017-10-31T09:30:45.370Z,61.80
2017-10-31T09:33:13.310Z,61.60
2017-10-31T09:35:41.724Z,61.60
2017-10-31T09:38:09.261Z,61.60
2017-10-31T09:40:37.480Z,61.90
2017-10-31T09:43:05.049Z,61.60
2017-10-31T09:45:32.907Z,61.50
2017-10-31T09:48:00.350Z,61.40
2017-10-31T09:50:27.886Z,61.20
2017-10-31T09:52:55.875Z,61.30
2017-10-31T09:55:23.874Z,60.90
2017-10-31T09:57:51.426Z,61.00
2017-10-31T10:00:18.959Z,60.80
2017-10-31T10:02:46.442Z,60.90
2017-10-31T10:05:13.929Z,60.60
2017-10-31T10:07:42.232Z,60.80
2017-10-31T10:10:11.207Z,60.50
2017-10-31T10:12:38.696Z,60.40
2017-10-31T10:15:06.210Z,60.40
2017-10-31T10:17:34.452Z,60.30
2017-10-31T10:20:02.606Z,60.20
2017-10-31T10:22:30.495Z,60.20
2017-10-31T10:24:58.218Z,60.10
2017-10-31T10:27:25.896Z,60.00
2017-10-31T10:29:53.619Z,60.00
2017-10-31T10:32:22.032Z,59.20
2017-10-31T10:34:49.918Z,59.20
2017-10-31T10:37:18.575Z,59.30
2017-10-31T10:39:47.089Z,59.00
2017-10-31T10:42:15.338Z,59.00
2017-10-31T10:44:43.096Z,59.00
2017-10-31T10:47:11.015Z,59.10
2017-10-31T10:49:38.663Z,59.00
2017-10-31T10:52:06.146Z,58.90
2017-10-31T10:54:33.797Z,58.60
2017-10-31T10:57:01.468Z,58.30
2017-10-31T10:59:29.194Z,58.40
2017-10-31T11:01:57.645Z,58.50
2017-10-31T11:04:25.243Z,58.50
2017-10-31T11:06:53.105Z,58.30
2017-10-31T11:09:21.066Z,58.00
2017-10-31T11:11:49.456Z,57.50
2017-10-31T11:14:16.949Z,57.50
2017-10-31T11:16:44.888Z,57.40
2017-10-31T11:19:12.980Z,57.50
2017-10-31T11:21:40.505Z,57.20
2017-10-31T11:24:09.020Z,57.30
2017-10-31T11:26:36.510Z,56.80
2017-10-31T11:29:04.382Z,56.80
2017-10-31T11:31:31.938Z,56.80
2017-10-31T11:33:59.775Z,57.00
2017-10-31T11:36:27.457Z,57.20
2017-10-31T11:38:56.942Z,57.20
2017-10-31T11:41:24.398Z,57.50
2017-10-31T11:43:52.183Z,57.50
2017-10-31T11:46:20.139Z,57.90
2017-10-31T11:48:48.426Z,58.00
2017-10-31T11:51:16.305Z,58.00
2017-10-31T11:53:43.832Z,58.00
2017-10-31T11:56:12.468Z,57.90
2017-10-31T11:58:40.220Z,57.90
2017-10-31T12:01:08.093Z,57.70
2017-10-31T12:03:35.756Z,57.60
2017-10-31T12:06:03.265Z,57.50
2017-10-31T12:08:31.650Z,57.40
2017-10-31T12:10:59.173Z,57.40
2017-10-31T12:13:26.888Z,57.00
2017-10-31T12:15:54.510Z,57.30
2017-10-31T12:18:22.279Z,57.40
2017-10-31T12:20:49.892Z,57.50
2017-10-31T12:23:18.708Z,58.50
2017-10-31T12:25:46.210Z,58.20
2017-10-31T12:28:14.456Z,58.40
2017-10-31T12:30:41.942Z,58.40
2017-10-31T12:33:10.165Z,58.40
2017-10-31T12:35:37.614Z,58.40
2017-10-31T12:38:05.115Z,58.30
2017-10-31T12:40:32.567Z,58.30
2017-10-31T12:43:00.031Z,58.40
2017-10-31T12:45:27.534Z,58.40
2017-10-31T12:47:55.096Z,58.40
2017-10-31T12:50:22.562Z,58.20
2017-10-31T12:52:50.042Z,58.00
2017-10-31T12:55:17.508Z,57.90
2017-10-31T12:57:44.981Z,58.50
2017-10-31T13:00:12.455Z,57.90
2017-10-31T13:02:40.676Z,58.10
2017-10-31T13:05:08.153Z,58.10
2017-10-31T13:07:35.625Z,58.20
2017-10-31T13:10:03.107Z,58.70
2017-10-31T13:12:31.345Z,58.30
2017-10-31T13:14:58.838Z,58.30
2017-10-31T13:17:27.085Z,57.90
2017-10-31T13:19:54.541Z,57.80
2017-10-31T13:22:22.002Z,58.00
2017-10-31T13:24:49.486Z,57.80
2017-10-31T13:27:17.981Z,58.00
2017-10-31T13:29:46.594Z,57.70
2017-10-31T13:32:14.402Z,57.70
2017-10-31T13:34:42.096Z,57.70
2017-10-31T13:37:10.668Z,57.70
2017-10-31T13:39:39.141Z,57.90
2017-10-31T13:42:06.954Z,57.90
2017-10-31T13:44:34.674Z,58.00
2017-10-31T13:47:02.198Z,58.20
2017-10-31T13:49:30.018Z,58.20
2017-10-31T13:51:58.555Z,58.60
2017-10-31T13:54:26.015Z,58.50
2017-10-31T13:56:53.497Z,58.50
2017-10-31T13:59:20.962Z,58.40
2017-10-31T14:01:54.359Z,58.60
2017-10-31T14:04:22.022Z,58.60
2017-10-31T14:06:50.036Z,58.70
2017-10-31T14:09:17.690Z,58.80
2017-10-31T14:11:45.361Z,58.90
2017-10-31T14:14:12.842Z,59.10
2017-10-31T14:16:40.302Z,59.30
2017-10-31T14:19:07.789Z,59.30
2017-10-31T14:21:35.247Z,59.60
2017-10-31T14:24:03.480Z,59.50
2017-10-31T14:26:30.958Z,59.50
2017-10-31T14:28:58.415Z,59.40
2017-10-31T14:31:25.895Z,59.50
2017-10-31T14:33:53.359Z,59.60
2017-10-31T14:36:20.859Z,59.60
2017-10-31T14:38:48.311Z,60.30
2017-10-31T14:41:15.789Z,59.80
2017-10-31T14:43:43.274Z,59.80
2017-10-31T14:46:10.754Z,59.90
2017-10-31T14:48:38.979Z,60.00
2017-10-31T14:51:06.470Z,59.90
2017-10-31T14:53:33.934Z,59.90
2017-10-31T14:56:01.401Z,60.00
2017-10-31T14:58:28.873Z,60.00
2017-10-31T15:00:57.118Z,60.00
2017-10-31T15:03:24.588Z,60.00
2017-10-31T15:05:52.049Z,60.00
2017-10-31T15:08:21.217Z,60.20
2017-10-31T15:10:48.714Z,60.20
2017-10-31T15:13:16.937Z,60.30
2017-10-31T15:15:44.394Z,60.30
2017-10-31T15:18:11.886Z,60.20
2017-10-31T15:20:39.342Z,60.30
2017-10-31T15:23:06.792Z,60.20
2017-10-31T15:25:34.280Z,60.20
2017-10-31T15:28:02.511Z,60.50
2017-10-31T15:30:29.988Z,60.50
2017-10-31T15:32:57.441Z,60.50
2017-10-31T15:35:24.930Z,60.50
2017-10-31T15:37:53.151Z,60.70
2017-10-31T15:40:22.144Z,61.00
2017-10-31T15:42:49.626Z,61.00
2017-10-31T15:45:17.086Z,60.90
2017-10-31T15:47:44.574Z,61.10
2017-10-31T15:50:12.799Z,61.00
2017-10-31T15:52:40.268Z,61.00
2017-10-31T15:55:07.754Z,61.00
2017-10-31T15:57:35.214Z,61.00
2017-10-31T16:00:02.675Z,60.90
2017-10-31T16:02:30.930Z,61.50
2017-10-31T16:04:58.382Z,62.00
2017-10-31T16:07:25.866Z,61.30
2017-10-31T16:09:53.318Z,62.10
2017-10-31T16:12:20.801Z,61.30
2017-10-31T16:14:49.055Z,61.00
2017-10-31T16:17:16.519Z,61.10
2017-10-31T16:19:43.998Z,61.20
2017-10-31T16:22:11.469Z,61.30
2017-10-31T16:24:38.950Z,61.30
2017-10-31T16:27:06.407Z,61.30
2017-10-31T16:29:33.886Z,61.20
2017-10-31T16:32:01.343Z,61.20
2017-10-31T16:34:28.821Z,61.20
2017-10-31T16:36:56.270Z,61.20
2017-10-31T16:39:23.752Z,61.30
2017-10-31T16:41:51.215Z,61.20
2017-10-31T16:44:18.698Z,61.20
2017-10-31T16:46:46.262Z,61.30
2017-10-31T16:49:13.723Z,61.30
2017-10-31T16:51:41.204Z,61.30
2017-10-31T16:54:08.683Z,61.40
2017-10-31T16:56:36.547Z,61.40
2017-10-31T16:59:04.997Z,61.40
2017-10-31T17:01:32.542Z,61.40
2017-10-31T17:04:00.100Z,61.40
2017-10-31T17:06:28.875Z,61.60
2017-10-31T17:08:56.390Z,61.50
2017-10-31T17:11:23.869Z,61.50
2017-10-31T17:13:51.485Z,61.60
2017-10-31T17:16:19.011Z,61.70
2017-10-31T17:18:46.588Z,61.80
2017-10-31T17:21:14.401Z,61.90
2017-10-31T17:23:42.130Z,61.80
2017-10-31T17:26:09.628Z,62.00
2017-10-31T17:28:37.360Z,62.00
2017-10-31T17:31:05.051Z,62.10
2017-10-31T17:33:32.771Z,62.00
2017-10-31T17:36:00.634Z,62.00
2017-10-31T17:38:28.387Z,62.10
2017-10-31T17:40:56.776Z,62.10
2017-10-31T17:43:24.486Z,62.20
2017-10-31T17:45:52.204Z,62.30
2017-10-31T17:48:20.835Z,62.40
2017-10-31T17:50:48.282Z,62.40
2017-10-31T17:53:15.805Z,62.60
2017-10-31T17:55:43.481Z,62.50
2017-10-31T17:58:11.290Z,62.50
2017-10-31T18:00:38.765Z,62.40
2017-10-31T18:03:06.213Z,62.60
2017-10-31T18:05:33.717Z,62.70
2017-10-31T18:08:01.667Z,62.60
2017-10-31T18:10:29.125Z,62.70
2017-10-31T18:12:56.576Z,62.70
2017-10-31T18:15:24.620Z,62.70
2017-10-31T18:17:52.522Z,62.80
2017-10-31T18:20:20.761Z,63.10
2017-10-31T18:22:48.401Z,63.10
2017-10-31T18:25:15.901Z,63.30
2017-10-31T18:27:43.377Z,63.60
2017-10-31T18:30:11.331Z,63.70
2017-10-31T18:32:39.291Z,63.90
2017-10-31T18:35:06.949Z,64.20
2017-10-31T18:37:34.652Z,64.20
2017-10-31T18:40:02.216Z,64.30
2017-10-31T18:42:29.760Z,64.40
2017-10-31T18:44:58.548Z,64.70
2017-10-31T18:47:26.026Z,64.70
2017-10-31T18:49:53.501Z,64.70
2017-10-31T18:52:21.014Z,64.90
2017-10-31T18:54:49.264Z,64.90
2017-10-31T18:57:16.713Z,64.90
2017-10-31T18:59:44.180Z,65.10
2017-10-31T19:02:11.669Z,65.20
2017-10-31T19:04:39.997Z,65.00
2017-10-31T19:07:07.503Z,65.00
2017-10-31T19:09:34.974Z,65.00
2017-10-31T19:12:02.470Z,65.20
2017-10-31T19:14:29.978Z,65.20
2017-10-31T19:16:58.254Z,65.30
2017-10-31T19:19:26.500Z,65.20
2017-10-31T19:21:53.990Z,65.20
2017-10-31T19:24:22.232Z,65.60
2017-10-31T19:26:49.681Z,65.30
2017-10-31T19:29:17.146Z,65.30
2017-10-31T19:31:44.634Z,65.40
2017-10-31T19:34:12.086Z,65.50
2017-10-31T19:36:39.546Z,65.50
2017-10-31T19:39:07.037Z,65.40
2017-10-31T19:41:34.493Z,65.40
2017-10-31T19:44:02.706Z,65.60
2017-10-31T19:46:30.234Z,65.50
2017-10-31T19:48:57.718Z,65.40
2017-10-31T19:51:26.123Z,65.50
2017-10-31T19:53:53.617Z,65.50
2017-10-31T19:56:21.846Z,65.50
2017-10-31T19:58:49.307Z,65.50
2017-10-31T20:01:16.887Z,65.50
2017-10-31T20:03:44.337Z,65.40
2017-10-31T20:06:12.172Z,65.40
2017-10-31T20:08:39.830Z,65.40
2017-10-31T20:11:07.339Z,65.40
2017-10-31T20:13:34.952Z,65.40
2017-10-31T20:16:02.501Z,65.30
2017-10-31T20:18:29.974Z,65.30
2017-10-31T20:20:57.550Z,65.40
2017-10-31T20:23:25.045Z,65.50
2017-10-31T20:25:52.522Z,65.50
2017-10-31T20:28:19.985Z,65.50
2017-10-31T20:30:47.454Z,65.50
2017-10-31T20:33:14.918Z,65.50
2017-10-31T20:35:42.394Z,65.40
2017-10-31T20:38:09.855Z,65.30
2017-10-31T20:40:37.328Z,65.30
2017-10-31T20:43:04.811Z,65.50
2017-10-31T20:45:33.102Z,65.50
2017-10-31T20:48:01.352Z,65.40
2017-10-31T20:50:29.081Z,65.40
2017-10-31T20:52:56.997Z,65.50
2017-10-31T20:55:24.473Z,65.30
2017-10-31T20:57:51.922Z,65.30
2017-10-31T21:00:19.400Z,65.30
2017-10-31T21:02:46.884Z,65.30
2017-10-31T21:05:14.518Z,65.30
2017-10-31T21:07:41.970Z,65.30
2017-10-31T21:10:09.433Z,65.40
2017-10-31T21:12:36.913Z,65.30
2017-10-31T21:15:04.442Z,65.40
2017-10-31T21:17:32.663Z,65.60
2017-10-31T21:20:00.142Z,65.60
2017-10-31T21:22:27.614Z,65.50
2017-10-31T21:24:55.090Z,65.50
2017-10-31T21:27:23.316Z,65.60
2017-10-31T21:29:50.791Z,65.60
2017-10-31T21:32:18.287Z,65.40
2017-10-31T21:34:45.749Z,65.50
2017-10-31T21:37:13.289Z,65.60
2017-10-31T21:39:41.542Z,65.80
2017-10-31T21:42:09.806Z,65.90
2017-10-31T21:44:37.315Z,65.80
2017-10-31T21:47:05.549Z,65.80
2017-10-31T21:49:33.030Z,65.80
2017-10-31T21:52:00.486Z,65.90
2017-10-31T21:54:28.062Z,65.90
2017-10-31T21:56:55.534Z,66.00
2017-10-31T21:59:22.998Z,65.90
2017-10-31T22:01:50.474Z,65.90
2017-10-31T22:04:17.938Z,65.90
2017-10-31T22:06:45.482Z,66.00
2017-10-31T22:09:12.949Z,65.90
2017-10-31T22:11:40.398Z,65.70
2017-10-31T22:14:07.882Z,65.90
2017-10-31T22:16:35.340Z,65.90
2017-10-31T22:19:02.818Z,65.90
2017-10-31T22:21:31.138Z,65.90
2017-10-31T22:23:58.614Z,65.80
2017-10-31T22:26:26.089Z,65.90
2017-10-31T22:28:53.554Z,65.80
2017-10-31T22:31:21.037Z,65.80
2017-10-31T22:33:48.493Z,65.80
2017-10-31T22:36:16.783Z,65.80
2017-10-31T22:38:45.026Z,66.60
2017-10-31T22:41:12.485Z,65.80
2017-10-31T22:43:39.962Z,65.80
2017-10-31T22:46:07.474Z,66.00
2017-10-31T22:48:34.965Z,65.90
2017-10-31T22:51:02.419Z,65.80
2017-10-31T22:53:29.898Z,65.80
2017-10-31T22:55:57.358Z,65.90
2017-10-31T22:58:24.860Z,65.90
2017-10-31T23:00:52.331Z,66.00
2017-10-31T23:03:19.785Z,66.00
2017-10-31T23:05:47.320Z,66.00
2017-10-31T23:08:14.805Z,65.90
2017-10-31T23:10:42.262Z,65.90
2017-10-31T23:13:09.721Z,65.90
2017-10-31T23:15:37.205Z,65.80
2017-10-31T23:18:04.666Z,65.90
2017-10-31T23:20:32.174Z,66.00
2017-10-31T23:22:59.622Z,66.10
2017-10-31T23:25:27.082Z,66.20
2017-10-31T23:27:54.567Z,66.20
2017-10-31T23:30:22.022Z,66.20
2017-10-31T23:32:49.497Z,66.30
2017-10-31T23:35:17.850Z,66.30
2017-10-31T23:37:45.340Z,66.30
2017-10-31T23:40:12.794Z,66.30
2017-10-31T23:42:40.254Z,66.40
2017-10-31T23:45:07.735Z,66.40
2017-10-31T23:47:35.190Z,66.50
2017-10-31T23:50:02.680Z,66.60
2017-10-31T23:52:30.995Z,66.60
2017-10-31T23:54:58.446Z,66.60
2017-10-31T23:57:25.930Z,66.70
2017-10-31T23:59:53.402Z,66.70
